createdAt,value
2023-11-23T00:00:27.539Z,23.67
2023-11-23T00:01:27.536Z,23.67
2023-11-23T00:02:27.590Z,23.67
2023-11-23T00:03:27.555Z,23.68
2023-11-23T00:04:27.523Z,23.67
2023-11-23T00:05:27.487Z,23.67
2023-11-23T00:57:47.449Z,23.42
2023-11-23T00:58:27.010Z,23.49
2023-11-23T00:59:27.000Z,23.54
2023-11-23T01:00:26.981Z,23.57
2023-11-23T01:01:27.090Z,23.60
2023-11-23T01:02:27.063Z,23.61
2023-11-23T01:03:27.023Z,23.62
2023-11-23T01:04:26.946Z,23.63
2023-11-23T01:05:26.952Z,23.64
2023-11-23T01:06:26.937Z,23.64
2023-11-23T01:07:26.917Z,23.64
2023-11-23T01:08:26.917Z,23.64
2023-11-23T01:09:26.902Z,23.66
2023-11-23T01:10:26.890Z,23.65
2023-11-23T01:11:26.890Z,23.66
2023-11-23T01:12:26.879Z,23.65
2023-11-23T01:13:26.894Z,23.66
2023-11-23T01:14:26.881Z,23.65
2023-11-23T01:15:26.843Z,23.65
2023-11-23T01:16:26.848Z,23.66
2023-11-23T01:17:26.857Z,23.66
2023-11-23T01:18:27.044Z,23.66
2023-11-23T01:19:26.813Z,23.66
2023-11-23T01:20:26.801Z,23.66
2023-11-23T01:21:26.797Z,23.66
2023-11-23T01:22:26.785Z,23.66
2023-11-23T01:23:26.788Z,23.66
2023-11-23T01:24:26.788Z,23.66
2023-11-23T01:25:26.765Z,23.66
2023-11-23T01:26:26.749Z,23.66
2023-11-23T01:27:26.738Z,23.66
2023-11-23T01:28:26.730Z,23.66
2023-11-23T01:29:26.756Z,23.66
2023-11-23T01:30:26.728Z,23.66
2023-11-23T01:31:26.700Z,23.66
2023-11-23T01:32:26.700Z,23.66
2023-11-23T01:33:26.779Z,23.66
2023-11-23T01:34:26.721Z,23.66
2023-11-23T01:35:26.665Z,23.65
2023-11-23T01:36:26.662Z,23.66
2023-11-23T01:37:26.654Z,23.66
2023-11-23T01:38:26.647Z,23.66
2023-11-23T01:39:26.725Z,23.65
2023-11-23T01:40:26.634Z,23.66
2023-11-23T01:41:26.619Z,23.65
2023-11-23T01:42:26.615Z,23.65
2023-11-23T01:43:26.596Z,23.66
2023-11-23T01:44:26.586Z,23.66
2023-11-23T01:45:26.651Z,23.65
2023-11-23T01:46:26.567Z,23.66
2023-11-23T01:47:26.556Z,23.65
2023-11-23T01:48:26.632Z,23.66
2023-11-23T01:49:26.627Z,23.66
2023-11-23T01:50:26.528Z,23.65
2023-11-23T01:51:26.541Z,23.65
2023-11-23T01:52:26.502Z,23.65
2023-11-23T01:53:26.504Z,23.65
2023-11-23T01:54:26.490Z,23.65
2023-11-23T01:55:26.490Z,23.65
2023-11-23T01:56:26.483Z,23.65
2023-11-23T01:57:26.478Z,23.65
2023-11-23T01:58:26.459Z,23.64
2023-11-23T01:59:26.444Z,23.65
2023-11-23T02:00:26.450Z,23.64
2023-11-23T02:01:26.531Z,23.64
2023-11-23T02:02:26.438Z,23.64
2023-11-23T02:03:26.439Z,23.64
2023-11-23T02:04:26.428Z,23.64
2023-11-23T02:05:26.393Z,23.64
2023-11-23T02:06:26.392Z,23.64
2023-11-23T02:07:26.381Z,23.64
2023-11-23T02:08:26.367Z,23.64
2023-11-23T02:09:26.352Z,23.64
2023-11-23T02:10:26.362Z,23.64
2023-11-23T02:11:26.344Z,23.64
2023-11-23T02:12:26.333Z,23.64
2023-11-23T02:13:26.332Z,23.64
2023-11-23T02:14:26.311Z,23.64
2023-11-23T02:15:26.338Z,23.64
2023-11-23T02:16:26.978Z,23.65
2023-11-23T02:17:26.670Z,23.63
2023-11-23T02:18:26.383Z,23.65
2023-11-23T02:19:26.266Z,23.64
2023-11-23T02:20:26.269Z,23.64
2023-11-23T02:21:26.242Z,23.64
2023-11-23T02:22:26.238Z,23.64
2023-11-23T02:23:26.239Z,23.64
2023-11-23T02:24:26.242Z,23.64
2023-11-23T02:25:26.220Z,23.64
2023-11-23T02:26:26.197Z,23.64
2023-11-23T02:27:26.209Z,23.64
2023-11-23T02:28:26.184Z,23.64
2023-11-23T02:29:26.169Z,23.64
2023-11-23T02:30:26.284Z,23.65
2023-11-23T02:31:26.168Z,23.64
2023-11-23T02:32:26.189Z,23.64
2023-11-23T02:33:26.335Z,23.65
2023-11-23T02:34:26.140Z,23.64
2023-11-23T02:35:26.140Z,23.65
2023-11-23T02:36:26.104Z,23.64
2023-11-23T02:37:26.098Z,23.65
2023-11-23T02:38:26.093Z,23.64
2023-11-23T02:39:26.080Z,23.65
2023-11-23T02:40:26.097Z,23.65
2023-11-23T02:41:26.065Z,23.64
2023-11-23T02:42:26.063Z,23.64
2023-11-23T02:43:26.143Z,23.65
2023-11-23T02:44:26.039Z,23.66
2023-11-23T02:45:26.092Z,23.65
2023-11-23T02:46:26.070Z,23.65
2023-11-23T02:47:26.018Z,23.64
2023-11-23T02:48:26.072Z,23.65
2023-11-23T02:49:26.017Z,23.65
2023-11-23T02:50:26.001Z,23.65
2023-11-23T02:51:25.998Z,23.64
2023-11-23T02:52:25.975Z,23.64
2023-11-23T02:53:25.953Z,23.64
2023-11-23T02:54:25.977Z,23.64
2023-11-23T02:55:25.997Z,23.64
2023-11-23T02:56:25.928Z,23.65
2023-11-23T02:57:25.919Z,23.64
2023-11-23T02:58:25.914Z,23.65
2023-11-23T02:59:25.897Z,23.64
2023-11-23T03:00:25.917Z,23.64
2023-11-23T03:01:25.934Z,23.64
2023-11-23T03:02:26.133Z,23.64
2023-11-23T03:03:25.917Z,23.64
2023-11-23T03:04:25.901Z,23.64
2023-11-23T03:05:25.880Z,23.63
2023-11-23T03:06:25.870Z,23.63
2023-11-23T03:07:25.831Z,23.64
2023-11-23T03:08:25.816Z,23.63
2023-11-23T03:09:25.866Z,23.64
2023-11-23T03:10:25.799Z,23.64
2023-11-23T03:11:25.797Z,23.64
2023-11-23T03:12:25.824Z,23.64
2023-11-23T03:13:25.770Z,23.64
2023-11-23T03:14:25.762Z,23.63
2023-11-23T03:15:25.826Z,23.64
2023-11-23T03:16:25.745Z,23.64
2023-11-23T03:17:25.813Z,23.63
2023-11-23T03:18:25.874Z,23.64
2023-11-23T03:19:25.732Z,23.63
2023-11-23T03:20:25.710Z,23.64
2023-11-23T03:21:25.850Z,23.64
2023-11-23T03:22:25.692Z,23.64
2023-11-23T03:23:25.682Z,23.64
2023-11-23T03:24:25.716Z,23.63
2023-11-23T03:25:25.661Z,23.63
2023-11-23T03:26:25.654Z,23.64
2023-11-23T03:27:25.695Z,23.63
2023-11-23T03:28:25.643Z,23.63
2023-11-23T03:29:25.624Z,23.63
2023-11-23T03:30:25.681Z,23.64
2023-11-23T03:31:25.608Z,23.64
2023-11-23T03:32:25.639Z,23.64
2023-11-23T03:33:25.674Z,23.63
2023-11-23T03:34:25.593Z,23.63
2023-11-23T03:35:25.582Z,23.63
2023-11-23T03:36:25.565Z,23.63
2023-11-23T03:37:25.575Z,23.64
2023-11-23T03:38:25.544Z,23.64
2023-11-23T03:39:25.596Z,23.63
2023-11-23T03:40:25.526Z,23.63
2023-11-23T03:41:25.518Z,23.64
2023-11-23T03:42:25.563Z,23.63
2023-11-23T03:43:25.504Z,23.62
2023-11-23T03:44:25.497Z,23.63
2023-11-23T03:45:25.549Z,23.63
2023-11-23T03:46:25.478Z,23.63
2023-11-23T03:47:25.485Z,23.63
2023-11-23T03:48:25.649Z,23.63
2023-11-23T03:49:25.462Z,23.63
2023-11-23T03:50:25.452Z,23.63
2023-11-23T03:51:25.524Z,23.64
2023-11-23T03:52:25.442Z,23.63
2023-11-23T03:53:25.446Z,23.64
2023-11-23T03:54:25.450Z,23.63
2023-11-23T03:55:25.411Z,23.64
2023-11-23T03:56:25.394Z,23.63
2023-11-23T03:57:25.413Z,23.63
2023-11-23T03:58:25.366Z,23.63
2023-11-23T03:59:25.358Z,23.63
2023-11-23T04:00:25.376Z,23.63
2023-11-23T04:01:25.375Z,23.64
2023-11-23T04:02:25.419Z,23.63
2023-11-23T04:03:25.361Z,23.63
2023-11-23T04:04:25.346Z,23.63
2023-11-23T04:05:25.298Z,23.62
2023-11-23T04:06:25.334Z,23.63
2023-11-23T04:07:25.287Z,23.63
2023-11-23T04:08:25.293Z,23.62
2023-11-23T04:09:25.324Z,23.63
2023-11-23T04:10:25.258Z,23.63
2023-11-23T04:11:25.246Z,23.63
2023-11-23T04:12:25.272Z,23.63
2023-11-23T04:13:25.243Z,23.63
2023-11-23T04:14:25.225Z,23.63
2023-11-23T04:15:25.260Z,23.63
2023-11-23T04:16:25.231Z,23.63
2023-11-23T04:17:25.223Z,23.63
2023-11-23T04:18:25.237Z,23.63
2023-11-23T04:19:25.170Z,23.63
2023-11-23T04:20:25.168Z,23.63
2023-11-23T04:21:25.171Z,23.63
2023-11-23T04:22:25.150Z,23.63
2023-11-23T04:23:25.139Z,23.63
2023-11-23T04:24:25.176Z,23.63
2023-11-23T04:25:25.145Z,23.63
2023-11-23T04:26:25.111Z,23.63
2023-11-23T04:27:25.137Z,23.62
2023-11-23T04:28:25.091Z,23.62
2023-11-23T04:29:25.090Z,23.62
2023-11-23T04:30:25.152Z,23.62
2023-11-23T04:31:25.067Z,23.62
2023-11-23T04:32:25.074Z,23.62
2023-11-23T04:33:25.154Z,23.62
2023-11-23T04:34:25.074Z,23.62
2023-11-23T04:35:25.026Z,23.62
2023-11-23T04:36:25.061Z,23.62
2023-11-23T04:37:25.362Z,23.63
2023-11-23T04:38:25.006Z,23.62
2023-11-23T04:39:25.051Z,23.62
2023-11-23T04:40:24.987Z,23.62
2023-11-23T04:41:24.992Z,23.62
2023-11-23T04:42:25.043Z,23.61
2023-11-23T04:43:24.970Z,23.62
2023-11-23T04:44:24.992Z,23.61
2023-11-23T04:45:24.965Z,23.62
2023-11-23T04:46:24.959Z,23.62
2023-11-23T04:47:24.964Z,23.62
2023-11-23T04:48:24.971Z,23.62
2023-11-23T04:49:24.898Z,23.61
2023-11-23T04:50:24.887Z,23.61
2023-11-23T04:51:24.980Z,23.61
2023-11-23T04:52:24.880Z,23.61
2023-11-23T04:53:24.868Z,23.61
2023-11-23T04:54:24.864Z,23.62
2023-11-23T04:55:24.848Z,23.61
2023-11-23T04:56:24.835Z,23.61
2023-11-23T04:57:24.912Z,23.62
2023-11-23T04:58:26.121Z,23.61
2023-11-23T04:59:24.810Z,23.62
2023-11-23T05:00:24.834Z,23.62
2023-11-23T05:01:24.814Z,23.61
2023-11-23T05:02:24.786Z,23.61
2023-11-23T05:03:24.976Z,23.62
2023-11-23T05:04:24.796Z,23.62
2023-11-23T05:05:24.751Z,23.61
2023-11-23T05:06:24.764Z,23.61
2023-11-23T05:07:24.733Z,23.61
2023-11-23T05:08:24.725Z,23.62
2023-11-23T05:09:24.770Z,23.61
2023-11-23T05:10:24.723Z,23.61
2023-11-23T05:11:24.707Z,23.61
2023-11-23T05:12:24.737Z,23.61
2023-11-23T05:13:24.735Z,23.61
2023-11-23T05:14:24.697Z,23.60
2023-11-23T05:15:24.732Z,23.61
2023-11-23T05:16:24.668Z,23.61
2023-11-23T05:17:24.649Z,23.61
2023-11-23T05:18:24.721Z,23.61
2023-11-23T05:19:35.835Z,23.60
2023-11-23T05:20:24.615Z,23.61
2023-11-23T05:21:24.628Z,23.60
2023-11-23T05:22:24.596Z,23.60
2023-11-23T05:23:24.586Z,23.60
2023-11-23T05:24:24.604Z,23.61
2023-11-23T05:25:24.590Z,23.60
2023-11-23T05:26:24.557Z,23.60
2023-11-23T05:27:24.591Z,23.61
2023-11-23T05:28:24.553Z,23.61
2023-11-23T05:29:24.560Z,23.61
2023-11-23T05:30:24.583Z,23.61
2023-11-23T05:31:24.530Z,23.61
2023-11-23T05:32:24.509Z,23.61
2023-11-23T05:33:26.031Z,23.61
2023-11-23T05:34:24.691Z,23.61
2023-11-23T05:35:24.703Z,23.61
2023-11-23T05:36:24.715Z,23.61
2023-11-23T05:37:24.668Z,23.61
2023-11-23T05:38:24.658Z,23.61
2023-11-23T05:39:24.820Z,23.60
2023-11-23T05:40:24.655Z,23.62
2023-11-23T05:41:24.624Z,23.61
2023-11-23T05:42:24.698Z,23.61
2023-11-23T05:43:24.629Z,23.60
2023-11-23T05:44:24.638Z,23.61
2023-11-23T05:45:24.668Z,23.61
2023-11-23T05:46:24.601Z,23.60
2023-11-23T05:47:24.620Z,23.60
2023-11-23T05:48:24.670Z,23.60
2023-11-23T05:49:24.573Z,23.61
2023-11-23T05:50:24.547Z,23.61
2023-11-23T05:51:25.097Z,23.61
2023-11-23T05:52:24.529Z,23.61
2023-11-23T05:53:24.539Z,23.61
2023-11-23T05:54:24.567Z,23.61
2023-11-23T05:55:24.526Z,23.61
2023-11-23T05:56:24.493Z,23.60
2023-11-23T05:57:24.513Z,23.61
2023-11-23T05:58:24.476Z,23.60
2023-11-23T05:59:24.466Z,23.60
2023-11-23T06:00:24.505Z,23.61
2023-11-23T06:01:24.482Z,23.60
2023-11-23T06:02:24.545Z,23.62
2023-11-23T06:03:25.485Z,23.61
2023-11-23T06:04:24.490Z,23.61
2023-11-23T06:05:24.509Z,23.61
2023-11-23T06:06:24.430Z,23.60
2023-11-23T06:07:24.394Z,23.60
2023-11-23T06:08:24.390Z,23.60
2023-11-23T06:09:24.494Z,23.60
2023-11-23T06:10:25.736Z,23.60
2023-11-23T06:11:24.356Z,23.60
2023-11-23T06:12:24.358Z,23.61
2023-11-23T06:13:24.341Z,23.60
2023-11-23T06:14:24.333Z,23.61
2023-11-23T06:15:24.336Z,23.61
2023-11-23T06:16:24.342Z,23.60
2023-11-23T06:17:24.423Z,23.60
2023-11-23T06:18:24.335Z,23.60
2023-11-23T06:19:24.285Z,23.60
2023-11-23T06:20:24.278Z,23.61
2023-11-23T06:21:24.305Z,23.58
2023-11-23T06:22:24.500Z,23.59
2023-11-23T06:23:24.249Z,23.58
2023-11-23T06:24:24.310Z,23.58
2023-11-23T06:25:25.665Z,23.59
2023-11-23T06:26:24.222Z,23.61
2023-11-23T06:27:24.237Z,23.63
2023-11-23T06:28:24.201Z,23.65
2023-11-23T06:29:24.202Z,23.68
2023-11-23T06:30:24.269Z,23.69
2023-11-23T06:31:24.183Z,23.72
2023-11-23T06:32:24.554Z,23.71
2023-11-23T06:33:24.229Z,23.73
2023-11-23T06:34:24.151Z,23.74
2023-11-23T06:35:24.136Z,23.76
2023-11-23T06:36:24.145Z,23.77
2023-11-23T06:37:24.117Z,23.57
2023-11-23T06:38:24.111Z,23.46
2023-11-23T06:39:24.161Z,23.43
2023-11-23T06:40:24.104Z,23.43
2023-11-23T06:41:24.583Z,23.44
2023-11-23T06:42:24.083Z,23.45
2023-11-23T06:43:24.066Z,23.47
2023-11-23T06:44:24.083Z,23.47
2023-11-23T06:45:24.118Z,23.49
2023-11-23T06:46:24.110Z,23.52
2023-11-23T06:47:24.048Z,23.58
2023-11-23T06:48:24.652Z,23.64
2023-11-23T06:49:24.045Z,23.69
2023-11-23T06:50:24.002Z,23.75
2023-11-23T06:51:24.065Z,23.79
2023-11-23T06:52:23.989Z,23.84
2023-11-23T06:53:27.228Z,23.88
2023-11-23T06:54:24.014Z,23.92
2023-11-23T06:55:23.973Z,23.95
2023-11-23T06:56:23.983Z,24.00
2023-11-23T06:57:23.994Z,23.90
2023-11-23T06:58:24.017Z,23.52
2023-11-23T06:59:23.920Z,22.91
2023-11-23T07:00:27.378Z,22.47
2023-11-23T07:01:23.951Z,22.23
2023-11-23T07:02:23.975Z,22.16
2023-11-23T07:03:24.083Z,22.19
2023-11-23T07:04:24.056Z,22.24
2023-11-23T07:05:23.899Z,22.32
2023-11-23T07:06:24.469Z,22.42
2023-11-23T07:07:24.192Z,22.54
2023-11-23T07:08:31.263Z,22.67
2023-11-23T07:09:24.191Z,22.78
2023-11-23T07:10:24.082Z,22.91
2023-11-23T07:11:24.021Z,23.03
2023-11-23T07:12:23.873Z,23.12
2023-11-23T07:13:23.829Z,23.20
2023-11-23T07:14:24.058Z,23.10
2023-11-23T07:15:23.794Z,22.74
2023-11-23T07:16:24.436Z,22.50
2023-11-23T07:17:23.757Z,22.40
2023-11-23T07:18:23.831Z,22.36
2023-11-23T07:19:23.769Z,22.40
2023-11-23T07:20:23.763Z,22.45
2023-11-23T07:21:24.114Z,22.53
2023-11-23T07:22:23.711Z,22.61
2023-11-23T07:23:23.714Z,22.71
2023-11-23T07:24:24.117Z,22.80
2023-11-23T07:25:24.147Z,22.90
2023-11-23T07:26:23.674Z,22.98
2023-11-23T07:27:23.719Z,23.08
2023-11-23T07:28:23.946Z,23.17
2023-11-23T07:29:25.056Z,23.26
2023-11-23T07:30:23.699Z,23.34
2023-11-23T07:31:23.678Z,23.41
2023-11-23T07:32:23.627Z,23.47
2023-11-23T07:33:23.664Z,23.54
2023-11-23T07:34:23.603Z,23.60
2023-11-23T07:35:24.085Z,23.66
2023-11-23T07:36:23.593Z,23.72
2023-11-23T07:37:23.602Z,23.77
2023-11-23T07:38:23.576Z,23.82
2023-11-23T07:39:23.649Z,23.88
2023-11-23T07:40:23.546Z,23.92
2023-11-23T07:41:23.575Z,23.97
2023-11-23T07:42:23.561Z,24.01
2023-11-23T07:43:23.519Z,23.97
2023-11-23T07:44:23.511Z,23.90
2023-11-23T07:45:23.585Z,23.79
2023-11-23T07:46:25.182Z,23.68
2023-11-23T07:47:23.501Z,23.57
2023-11-23T07:48:23.547Z,23.49
2023-11-23T07:49:23.589Z,23.51
2023-11-23T07:50:23.578Z,23.56
2023-11-23T07:51:23.547Z,23.60
2023-11-23T07:52:23.496Z,23.66
2023-11-23T07:53:23.463Z,23.72
2023-11-23T07:54:23.476Z,23.79
2023-11-23T07:55:23.539Z,23.86
2023-11-23T07:56:23.406Z,23.93
2023-11-23T07:57:23.441Z,24.00
2023-11-23T07:58:23.455Z,24.05
2023-11-23T07:59:23.371Z,24.12
2023-11-23T08:00:23.646Z,24.19
2023-11-23T08:01:23.356Z,24.24
2023-11-23T08:02:23.358Z,24.30
2023-11-23T08:03:23.446Z,24.35
2023-11-23T08:04:23.437Z,24.41
2023-11-23T08:05:23.546Z,24.45
2023-11-23T08:06:23.421Z,24.49
2023-11-23T08:07:23.313Z,24.52
2023-11-23T08:08:24.058Z,24.56
2023-11-23T08:09:23.388Z,24.60
2023-11-23T08:10:23.284Z,24.64
2023-11-23T08:11:23.699Z,24.68
2023-11-23T08:12:23.309Z,24.70
2023-11-23T08:13:23.543Z,24.73
2023-11-23T08:14:23.282Z,24.77
2023-11-23T08:15:23.726Z,24.79
2023-11-23T08:16:23.271Z,24.81
2023-11-23T08:17:23.709Z,24.85
2023-11-23T08:18:27.380Z,24.87
2023-11-23T08:19:23.487Z,24.89
2023-11-23T08:20:23.599Z,24.89
2023-11-23T08:21:23.230Z,24.86
2023-11-23T08:22:23.174Z,24.82
2023-11-23T08:23:23.546Z,24.77
2023-11-23T08:24:23.243Z,24.73
2023-11-23T08:25:23.163Z,24.68
2023-11-23T08:26:23.132Z,24.63
2023-11-23T08:27:23.140Z,24.56
2023-11-23T08:28:23.560Z,24.51
2023-11-23T08:29:23.414Z,24.45
2023-11-23T08:30:23.414Z,24.42
2023-11-23T08:31:23.146Z,24.35
2023-11-23T08:32:23.070Z,24.34
2023-11-23T08:33:24.030Z,24.35
2023-11-23T08:34:23.057Z,24.34
2023-11-23T08:35:23.096Z,24.30
2023-11-23T08:36:23.285Z,24.31
2023-11-23T08:37:23.130Z,24.31
2023-11-23T08:38:23.070Z,24.31
2023-11-23T08:39:23.055Z,24.33
2023-11-23T08:40:30.460Z,24.34
2023-11-23T08:41:23.009Z,23.75
2023-11-23T08:42:23.053Z,22.73
2023-11-23T08:43:23.085Z,22.33
2023-11-23T08:44:22.990Z,22.32
2023-11-23T08:45:23.105Z,22.44
2023-11-23T08:46:23.000Z,22.58
2023-11-23T08:47:23.106Z,22.39
2023-11-23T08:48:23.074Z,22.12
2023-11-23T08:49:23.073Z,22.13
2023-11-23T08:50:22.947Z,22.25
2023-11-23T08:51:22.914Z,22.36
2023-11-23T08:52:23.903Z,22.52
2023-11-23T08:53:22.931Z,22.70
2023-11-23T08:54:24.187Z,22.86
2023-11-23T08:55:22.866Z,23.02
2023-11-23T08:56:22.884Z,23.16
2023-11-23T08:57:22.863Z,23.29
2023-11-23T08:58:22.834Z,23.40
2023-11-23T08:59:22.822Z,23.47
2023-11-23T09:00:22.904Z,23.55
2023-11-23T09:01:23.074Z,23.58
2023-11-23T09:02:22.888Z,23.62
2023-11-23T09:03:22.927Z,23.62
2023-11-23T09:04:26.548Z,23.65
2023-11-23T09:05:22.884Z,23.67
2023-11-23T09:06:23.092Z,23.66
2023-11-23T09:07:22.798Z,23.69
2023-11-23T09:08:22.744Z,23.75
2023-11-23T09:09:22.770Z,23.82
2023-11-23T09:10:22.728Z,23.89
2023-11-23T09:11:22.713Z,23.96
2023-11-23T09:12:22.729Z,24.03
2023-11-23T09:13:22.698Z,24.10
2023-11-23T09:14:22.704Z,24.16
2023-11-23T09:15:24.141Z,24.22
2023-11-23T09:16:22.667Z,24.27
2023-11-23T09:17:22.664Z,24.32
2023-11-23T09:18:23.294Z,24.38
2023-11-23T09:19:22.664Z,24.43
2023-11-23T09:20:22.641Z,24.48
2023-11-23T09:21:22.657Z,24.51
2023-11-23T09:22:22.627Z,24.56
2023-11-23T09:23:23.071Z,24.61
2023-11-23T09:24:22.707Z,24.64
2023-11-23T09:25:22.992Z,24.67
2023-11-23T09:26:22.579Z,24.69
2023-11-23T09:27:24.216Z,24.72
2023-11-23T09:28:22.586Z,24.74
2023-11-23T09:29:22.563Z,24.76
2023-11-23T09:30:23.309Z,24.78
2023-11-23T09:31:22.549Z,24.80
2023-11-23T09:32:22.580Z,24.82
2023-11-23T09:33:23.422Z,24.83
2023-11-23T09:34:22.587Z,24.84
2023-11-23T09:35:22.525Z,24.82
2023-11-23T09:36:22.528Z,24.84
2023-11-23T09:37:22.512Z,24.87
2023-11-23T09:38:22.580Z,24.90
2023-11-23T09:39:24.811Z,24.92
2023-11-23T09:40:22.450Z,24.94
2023-11-23T09:41:22.620Z,24.97
2023-11-23T09:42:22.479Z,25.00
2023-11-23T09:43:22.426Z,25.04
2023-11-23T09:44:22.649Z,25.07
2023-11-23T09:45:25.325Z,25.11
2023-11-23T09:46:22.451Z,25.13
2023-11-23T09:47:22.536Z,25.16
2023-11-23T09:48:22.449Z,25.18
2023-11-23T09:49:22.608Z,25.23
2023-11-23T09:50:22.373Z,25.26
2023-11-23T09:51:22.367Z,25.29
2023-11-23T09:52:22.583Z,25.31
2023-11-23T09:53:22.356Z,25.34
2023-11-23T09:54:22.613Z,25.36
2023-11-23T09:55:22.319Z,25.40
2023-11-23T09:56:22.308Z,25.41
2023-11-23T09:57:22.324Z,25.39
2023-11-23T09:58:22.289Z,25.35
2023-11-23T09:59:22.599Z,25.20
2023-11-23T10:00:22.870Z,25.02
2023-11-23T10:01:22.281Z,24.89
2023-11-23T10:02:22.334Z,24.78
2023-11-23T10:03:22.663Z,24.73
2023-11-23T10:04:22.284Z,24.72
2023-11-23T10:05:22.229Z,24.70
2023-11-23T10:06:22.247Z,24.69
2023-11-23T10:07:22.587Z,24.69
2023-11-23T10:08:22.588Z,24.69
2023-11-23T10:09:22.228Z,24.72
2023-11-23T10:10:22.197Z,24.73
2023-11-23T10:11:22.174Z,24.76
2023-11-23T10:12:22.203Z,24.79
2023-11-23T10:13:22.593Z,24.81
2023-11-23T10:14:22.143Z,24.83
2023-11-23T10:15:22.165Z,24.85
2023-11-23T10:16:22.161Z,24.87
2023-11-23T10:17:22.591Z,24.88
2023-11-23T10:18:22.696Z,24.91
2023-11-23T10:19:22.114Z,24.93
2023-11-23T10:20:22.108Z,24.95
2023-11-23T10:21:22.118Z,24.96
2023-11-23T10:22:22.201Z,24.98
2023-11-23T10:23:22.096Z,25.00
2023-11-23T10:24:22.103Z,25.02
2023-11-23T10:25:22.047Z,25.04
2023-11-23T10:26:22.050Z,25.05
2023-11-23T10:27:22.059Z,25.06
2023-11-23T10:28:22.111Z,25.05
2023-11-23T10:29:22.007Z,25.06
2023-11-23T10:30:22.025Z,25.07
2023-11-23T10:31:21.990Z,25.07
2023-11-23T10:32:22.034Z,25.06
2023-11-23T10:33:22.562Z,25.05
2023-11-23T10:34:22.004Z,25.04
2023-11-23T10:35:25.150Z,25.02
2023-11-23T10:36:22.179Z,25.01
2023-11-23T10:37:21.958Z,24.99
2023-11-23T10:38:25.566Z,24.97
2023-11-23T10:39:22.051Z,24.94
2023-11-23T10:40:21.945Z,24.92
2023-11-23T10:41:21.925Z,24.90
2023-11-23T10:42:21.996Z,24.88
2023-11-23T10:43:22.145Z,24.86
2023-11-23T10:44:21.931Z,24.85
2023-11-23T10:45:22.568Z,24.82
2023-11-23T10:46:22.398Z,24.80
2023-11-23T10:47:21.863Z,24.80
2023-11-23T10:48:21.971Z,24.79
2023-11-23T10:49:21.860Z,24.77
2023-11-23T10:50:21.827Z,24.77
2023-11-23T10:51:22.197Z,24.76
2023-11-23T10:52:21.834Z,24.75
2023-11-23T10:53:21.799Z,24.74
2023-11-23T10:54:21.826Z,24.72
2023-11-23T10:55:21.834Z,24.71
2023-11-23T10:56:21.791Z,24.72
2023-11-23T10:57:22.753Z,24.72
2023-11-23T10:58:21.752Z,24.50
2023-11-23T10:59:22.123Z,24.12
2023-11-23T11:00:22.564Z,23.72
2023-11-23T11:01:22.149Z,23.25
2023-11-23T11:02:21.819Z,23.02
2023-11-23T11:03:22.253Z,22.88
2023-11-23T11:04:21.827Z,22.78
2023-11-23T11:05:22.138Z,22.70
2023-11-23T11:06:21.689Z,22.47
2023-11-23T11:07:21.659Z,22.26
2023-11-23T11:08:21.952Z,22.13
2023-11-23T11:09:21.671Z,21.88
2023-11-23T11:10:22.123Z,21.65
2023-11-23T11:11:22.005Z,21.54
2023-11-23T11:12:21.977Z,21.50
2023-11-23T11:13:21.997Z,21.60
2023-11-23T11:14:21.615Z,21.71
2023-11-23T11:15:22.532Z,21.82
2023-11-23T11:16:21.944Z,21.96
2023-11-23T11:17:21.772Z,22.08
2023-11-23T11:18:21.804Z,22.20
2023-11-23T11:19:21.630Z,22.30
2023-11-23T11:20:21.849Z,22.26
2023-11-23T11:21:21.821Z,22.01
2023-11-23T11:22:21.801Z,21.35
2023-11-23T11:23:25.029Z,20.78
2023-11-23T11:24:21.913Z,20.49
2023-11-23T11:25:21.705Z,20.48
2023-11-23T11:26:21.541Z,20.31
2023-11-23T11:27:21.814Z,20.20
2023-11-23T11:28:21.716Z,20.11
2023-11-23T11:29:21.534Z,20.16
2023-11-23T11:30:21.728Z,20.07
2023-11-23T11:31:22.052Z,20.09
2023-11-23T11:32:22.050Z,20.21
2023-11-23T11:33:21.568Z,20.37
2023-11-23T11:34:21.761Z,20.54
2023-11-23T11:35:21.676Z,20.70
2023-11-23T11:36:21.633Z,20.88
2023-11-23T11:37:21.874Z,21.03
2023-11-23T11:38:21.576Z,21.18
2023-11-23T11:39:21.517Z,21.33
2023-11-23T11:40:22.578Z,21.46
2023-11-23T11:41:21.390Z,21.57
2023-11-23T11:42:21.885Z,21.69
2023-11-23T11:43:21.431Z,21.78
2023-11-23T11:44:21.354Z,21.87
2023-11-23T11:45:21.455Z,21.96
2023-11-23T11:46:21.565Z,22.04
2023-11-23T11:47:21.837Z,22.12
2023-11-23T11:48:21.433Z,22.19
2023-11-23T11:49:21.397Z,22.26
2023-11-23T11:50:21.453Z,22.32
2023-11-23T11:51:21.321Z,22.38
2023-11-23T11:52:21.696Z,22.43
2023-11-23T11:53:21.243Z,22.48
2023-11-23T11:54:21.319Z,22.52
2023-11-23T11:55:21.225Z,22.58
2023-11-23T11:56:21.212Z,22.62
2023-11-23T11:57:21.225Z,22.66
2023-11-23T11:58:21.214Z,22.70
2023-11-23T11:59:21.204Z,22.73
2023-11-23T12:00:21.187Z,22.75
2023-11-23T12:01:21.190Z,22.75
2023-11-23T12:02:21.755Z,22.76
2023-11-23T12:03:21.242Z,22.79
2023-11-23T12:04:21.238Z,22.83
2023-11-23T12:05:21.165Z,22.88
2023-11-23T12:06:21.228Z,22.92
2023-11-23T12:07:21.152Z,22.97
2023-11-23T12:08:21.171Z,23.02
2023-11-23T12:09:30.824Z,23.07
2023-11-23T12:10:21.096Z,23.11
2023-11-23T12:11:21.106Z,23.17
2023-11-23T12:12:21.350Z,23.23
2023-11-23T12:13:21.169Z,23.28
2023-11-23T12:14:21.095Z,23.34
2023-11-23T12:15:21.109Z,23.38
2023-11-23T12:16:21.042Z,23.44
2023-11-23T12:17:21.152Z,23.48
2023-11-23T12:18:21.064Z,23.53
2023-11-23T12:19:21.007Z,23.56
2023-11-23T12:20:21.206Z,23.61
2023-11-23T12:21:21.053Z,23.65
2023-11-23T12:22:21.014Z,23.69
2023-11-23T12:23:21.157Z,23.72
2023-11-23T12:24:21.069Z,23.76
2023-11-23T12:25:20.948Z,23.78
2023-11-23T12:26:20.966Z,23.82
2023-11-23T12:27:20.948Z,23.85
2023-11-23T12:28:21.147Z,23.88
2023-11-23T12:29:20.911Z,23.89
2023-11-23T12:30:20.943Z,23.93
2023-11-23T12:31:21.209Z,23.95
2023-11-23T12:32:20.877Z,23.98
2023-11-23T12:33:20.976Z,23.99
2023-11-23T12:34:20.869Z,24.02
2023-11-23T12:35:20.882Z,24.04
2023-11-23T12:36:21.205Z,24.06
2023-11-23T12:37:20.876Z,24.08
2023-11-23T12:38:20.847Z,24.11
2023-11-23T12:39:20.877Z,24.13
2023-11-23T12:40:20.850Z,24.16
2023-11-23T12:41:21.194Z,24.17
2023-11-23T12:42:20.843Z,24.19
2023-11-23T12:43:21.150Z,24.20
2023-11-23T12:44:20.762Z,24.23
2023-11-23T12:45:20.800Z,24.25
2023-11-23T12:46:20.806Z,24.26
2023-11-23T12:47:20.841Z,24.28
2023-11-23T12:48:20.897Z,24.31
2023-11-23T12:49:20.758Z,24.31
2023-11-23T12:50:20.743Z,24.33
2023-11-23T12:51:21.210Z,24.33
2023-11-23T12:52:20.751Z,24.35
2023-11-23T12:53:20.724Z,24.37
2023-11-23T12:54:20.761Z,24.38
2023-11-23T12:55:20.709Z,24.39
2023-11-23T12:56:21.451Z,24.41
2023-11-23T12:57:20.720Z,24.41
2023-11-23T12:58:20.672Z,24.43
2023-11-23T12:59:20.662Z,24.44
2023-11-23T13:00:20.705Z,24.46
2023-11-23T13:01:20.704Z,24.48
2023-11-23T13:02:20.750Z,24.49
2023-11-23T13:03:20.778Z,24.50
2023-11-23T13:04:21.201Z,24.51
2023-11-23T13:05:20.666Z,24.53
2023-11-23T13:06:20.737Z,24.53
2023-11-23T13:07:20.626Z,24.55
2023-11-23T13:08:20.660Z,24.55
2023-11-23T13:09:20.565Z,24.57
2023-11-23T13:10:20.651Z,24.40
2023-11-23T13:11:21.686Z,23.92
2023-11-23T13:12:20.602Z,23.38
2023-11-23T13:13:20.603Z,22.64
2023-11-23T13:14:20.545Z,22.08
2023-11-23T13:15:20.537Z,21.69
2023-11-23T13:16:20.748Z,21.45
2023-11-23T13:17:20.718Z,21.17
2023-11-23T13:18:20.702Z,20.92
2023-11-23T13:19:30.117Z,20.62
2023-11-23T13:20:20.595Z,20.27
2023-11-23T13:21:20.596Z,20.11
2023-11-23T13:22:20.524Z,19.90
2023-11-23T13:23:20.548Z,19.68
2023-11-23T13:24:20.784Z,19.52
2023-11-23T13:25:20.426Z,19.31
2023-11-23T13:26:20.441Z,19.18
2023-11-23T13:27:20.442Z,19.13
2023-11-23T13:28:20.458Z,19.12
2023-11-23T13:29:20.718Z,19.06
2023-11-23T13:30:21.476Z,19.13
2023-11-23T13:31:20.580Z,19.40
2023-11-23T13:32:20.728Z,19.70
2023-11-23T13:33:21.448Z,19.97
2023-11-23T13:34:20.626Z,20.22
2023-11-23T13:35:20.397Z,20.47
2023-11-23T13:36:20.491Z,20.70
2023-11-23T13:37:20.763Z,20.91
2023-11-23T13:38:20.401Z,21.12
2023-11-23T13:39:20.334Z,21.31
2023-11-23T13:40:20.312Z,21.49
2023-11-23T13:41:20.314Z,21.66
2023-11-23T13:42:20.750Z,21.81
2023-11-23T13:43:20.291Z,21.95